Pays
Station

 

Conditions  météo  pour  Kuusamo  -  Finlande    Finlande

  
4 °C
    
 
 

METAR pour Kuusamo :

EFKS 212350Z AUTO 20006KT 170V240 9999 OVC008 04/04 Q0996

 

Voici le bulletin pour Kuusamo - Finlande.
 
Le bulletin a été fait il y a 25 minutes, à 23:50 UTC .
Le vent soufflait à la vitesse de 3.1 mètres par seconde de Sud/Sud-ouest (200°), variant entre Sud (170°) et Ouest/Sud-ouest (240°).
 
La température était de 4 °C, avec un point de rosée à 4 °C.
La température ressentie était de 1 °C.
 
La pression atmosphérique était de 996 hPa.
L'humidité relative était de 100.0%.
 
Le ciel était nuageux à partir d'une hauteur de 244 mètres
 
La visibilité globale était de supérieure à 10 kilomètres.
 

 
 
 

Pays :   A   B   C   D   E   F   G   H   I   J   K   L   M   N   O   P   Q   R   S   T   U   V   W   Y   Z

 

Partenaires :  Info Météo avec Met'info
Météo Marine avec MeteoMarine.net
Infos Site  |  Infos Légales  |  Crédits  |  Confidentialité
Contactez-nous  |  Ajouter aux favoris
© 2013-2018 METAR - Tous droits réservés